Flight Track Log - Related Links

Times and Time Zones

All times are in EDT time to prevent confusion due to time zone crossing. See the CCA4485 flight status page for this flight to view local times or setup timezone preferences in your user account.

Time Position Orientation Groundspeed Altitude Reporting Facility
EDT Latitude Longitude Course Direction KTS MPH feet Rate Location/Type
Thu 07:59:00 AM 30.7580 103.9268 354° North  Level Estimated
Thu 08:00:00 AM 30.8179 103.9200 354° North  Level Estimated
Thu 08:01:00 AM 30.8777 103.9131 354° North  Level Estimated
Thu 08:02:00 AM 30.9375 103.9063 354° North  Level Estimated
Thu 08:03:00 AM 30.9973 103.8995 354° North  Level Estimated
Thu 08:04:00 AM 31.0572 103.8927 354° North  Level Estimated
Thu 08:05:00 AM 31.1170 103.8858 354° North  Level Estimated
Thu 08:06:00 AM 31.1768 103.8790 354° North  Level Estimated
Thu 08:07:00 AM 31.2367 103.8721 354° North  Level Estimated
Thu 08:08:00 AM 31.2965 103.8653 354° North  Level Estimated
Thu 08:09:00 AM 31.3563 103.8584 354° North  Level Estimated
Thu 08:10:00 AM 31.4161 103.8515 354° North  Level Estimated
Thu 08:11:00 AM 31.4760 103.8446 354° North  Level Estimated
Thu 08:12:00 AM 31.5358 103.8377 354° North  Level Estimated
Thu 08:13:00 AM 31.5956 103.8308 354° North  Level Estimated
Thu 08:14:00 AM 31.6554 103.8239 354° North  Level Estimated
Thu 08:15:00 AM 31.7153 103.8170 354° North  Level Estimated
Thu 08:16:00 AM 31.7751 103.8100 354° North  Level Estimated
Thu 08:17:00 AM 31.8349 103.8031 354° North  Level Estimated
Thu 08:18:00 AM 31.8947 103.7961 354° North  Level Estimated
Thu 08:19:00 AM 31.9545 103.7892 354° North  Level Estimated
Thu 08:20:00 AM 32.0144 103.7822 354° North  Level Estimated
Thu 08:21:00 AM 32.0742 103.7752 354° North  Level Estimated
Thu 08:22:00 AM 32.1340 103.7682 354° North  Level Estimated
Thu 08:23:00 AM 32.1938 103.7612 354° North  Level Estimated
Thu 08:24:00 AM 32.2536 103.7542 354° North  Level Estimated
Thu 08:25:00 AM 32.3135 103.7472 354° North  Level Estimated
Thu 08:26:00 AM 32.3733 103.7402 354° North  Level Estimated
Thu 08:27:00 AM 32.4331 103.7331 354° North  Level Estimated
Thu 08:28:00 AM 32.4929 103.7261 354° North  Level Estimated
Thu 08:29:00 AM 32.5527 103.7190 354° North  Level Estimated
Thu 08:30:00 AM 32.6126 103.7120 354° North  Level Estimated

Login

Don't have an account? Register now (free) for customized features, flight alerts, and more!